Time;durP1;ratioP1;P1;durP2;ratioP2;P2;SDS_P1;SDS_P2;PMS_P1;PMS_P2;Temp;Humidity;BMP_temperature;BMP_pressure;BME280_temperature;BME280_humidity;BME280_pressure;Samples;Min_cycle;Max_cycle;Signal;HPM_P1;HPM_P2
2021/11/27 00:02:40;;;;;;;8.43;3.80;;;;;;;;;;6268954;28;20098;-79
2021/11/27 00:05:42;;;;;;;5.68;3.28;;;;;;;;;;6266841;28;20112;-79
2021/11/27 00:08:44;;;;;;;7.00;3.83;;;;;;;;;;6269028;28;20094;-79
2021/11/27 00:11:46;;;;;;;5.25;3.17;;;;;;;;;;6249994;28;20520;-77
2021/11/27 00:14:48;;;;;;;4.78;3.22;;;;;;;;;;6270913;28;20190;-78
2021/11/27 00:17:50;;;;;;;6.63;3.53;;;;;;;;;;6270752;28;20503;-79
2021/11/27 00:20:56;;;;;;;7.05;3.28;;;;;;;;;;6268589;28;20055;-78
2021/11/27 00:23:59;;;;;;;3.60;1.98;;;;;;;;;;6268054;28;20052;-79
2021/11/27 00:27:00;;;;;;;5.22;2.63;;;;;;;;;;6266736;28;20082;-79
2021/11/27 00:30:04;;;;;;;3.60;2.25;;;;;;;;;;6250950;28;20052;-79
2021/11/27 00:33:06;;;;;;;4.45;2.80;;;;;;;;;;6270036;28;20505;-78
2021/11/27 00:36:09;;;;;;;2.25;1.75;;;;;;;;;;6265517;28;20037;-80
2021/11/27 00:39:11;;;;;;;4.47;2.50;;;;;;;;;;6267256;28;20095;-78
2021/11/27 00:42:13;;;;;;;5.60;2.88;;;;;;;;;;6264957;28;20064;-78
2021/11/27 00:45:17;;;;;;;6.80;3.15;;;;;;;;;;6249742;28;20060;-79
2021/11/27 00:48:19;;;;;;;4.18;2.28;;;;;;;;;;6268109;28;20123;-79
2021/11/27 00:51:23;;;;;;;4.55;2.63;;;;;;;;;;6258479;28;20049;-78
2021/11/27 00:54:25;;;;;;;2.80;2.05;;;;;;;;;;6243675;28;20119;-80
2021/11/27 00:57:27;;;;;;;3.83;2.15;;;;;;;;;;6248256;28;20055;-80
2021/11/27 01:00:31;;;;;;;3.75;2.15;;;;;;;;;;6267711;28;20037;-79
2021/11/27 01:03:36;;;;;;;3.63;2.38;;;;;;;;;;6251367;28;20047;-77
2021/11/27 01:06:39;;;;;;;3.45;1.98;;;;;;;;;;6265875;28;20033;-79
2021/11/27 01:09:41;;;;;;;2.58;1.75;;;;;;;;;;6268303;28;20049;-78
2021/11/27 01:12:43;;;;;;;2.72;1.80;;;;;;;;;;6265485;28;20045;-77
2021/11/27 01:15:45;;;;;;;3.70;2.28;;;;;;;;;;6267420;28;20172;-78
2021/11/27 01:18:48;;;;;;;3.60;2.10;;;;;;;;;;6267493;28;20052;-79
2021/11/27 01:21:55;;;;;;;2.20;1.53;;;;;;;;;;6266187;28;20581;-79
2021/11/27 01:24:56;;;;;;;2.10;1.77;;;;;;;;;;6267099;28;20486;-80
2021/11/27 01:27:59;;;;;;;2.47;2.13;;;;;;;;;;6250360;28;20041;-80
2021/11/27 01:31:02;;;;;;;3.42;2.40;;;;;;;;;;6265579;28;20109;-79
2021/11/27 01:34:07;;;;;;;6.13;2.28;;;;;;;;;;6266968;28;20041;-79
2021/11/27 01:37:10;;;;;;;2.70;2.00;;;;;;;;;;6266297;28;20060;-79
2021/11/27 01:40:19;;;;;;;4.22;2.25;;;;;;;;;;6268058;28;20055;-79
2021/11/27 01:43:21;;;;;;;4.60;1.95;;;;;;;;;;6249852;28;20528;-78
2021/11/27 01:46:23;;;;;;;3.92;2.22;;;;;;;;;;6266252;28;20044;-78
2021/11/27 01:49:27;;;;;;;;;;;;;;;;;;6268766;28;20057;-79
2021/11/27 01:52:29;;;;;;;5.00;3.00;;;;;;;;;;6249538;28;19984;-78
2021/11/27 01:55:31;;;;;;;3.13;2.00;;;;;;;;;;6267595;28;20068;-79
2021/11/27 01:58:33;;;;;;;3.25;1.90;;;;;;;;;;6260628;28;20055;-78
2021/11/27 02:01:35;;;;;;;5.30;3.20;;;;;;;;;;6266379;28;20530;-79
2021/11/27 02:04:38;;;;;;;4.32;2.17;;;;;;;;;;6266396;28;20514;-79
2021/11/27 02:07:40;;;;;;;4.20;2.50;;;;;;;;;;6266034;28;20053;-78
2021/11/27 02:10:44;;;;;;;6.18;2.70;;;;;;;;;;6249940;28;20516;-77
2021/11/27 02:13:46;;;;;;;5.30;3.38;;;;;;;;;;6249731;28;20037;-78
2021/11/27 02:16:49;;;;;;;3.80;3.00;;;;;;;;;;6250447;28;20045;-78
2021/11/27 02:19:53;;;;;;;6.50;3.40;;;;;;;;;;6266661;28;20052;-78
2021/11/27 02:22:55;;;;;;;4.40;2.83;;;;;;;;;;6265060;28;20932;-78
2021/11/27 02:25:59;;;;;;;4.63;2.58;;;;;;;;;;6268922;28;20041;-79
2021/11/27 02:29:09;;;;;;;4.18;2.78;;;;;;;;;;6261155;28;20037;-78
2021/11/27 02:32:11;;;;;;;5.40;2.75;;;;;;;;;;6265289;28;20048;-79
2021/11/27 02:35:13;;;;;;;7.78;3.17;;;;;;;;;;6250563;28;20079;-78
2021/11/27 02:38:15;;;;;;;6.18;3.40;;;;;;;;;;6253571;28;20042;-79
2021/11/27 02:41:18;;;;;;;3.88;2.92;;;;;;;;;;6266080;28;20052;-77
2021/11/27 02:44:21;;;;;;;5.00;3.10;;;;;;;;;;6248927;28;20041;-79
2021/11/27 02:47:23;;;;;;;4.65;2.97;;;;;;;;;;6271110;28;20045;-79
2021/11/27 02:50:25;;;;;;;8.10;4.07;;;;;;;;;;6269205;28;20052;-78
2021/11/27 02:53:26;;;;;;;7.13;3.85;;;;;;;;;;6270897;28;20524;-79
2021/11/27 02:56:29;;;;;;;7.22;3.97;;;;;;;;;;6254082;28;20044;-78
2021/11/27 02:59:31;;;;;;;7.88;4.05;;;;;;;;;;6253112;28;20092;-78
2021/11/27 03:02:33;;;;;;;8.70;4.40;;;;;;;;;;6270032;28;20041;-79
2021/11/27 03:05:35;;;;;;;6.95;3.95;;;;;;;;;;6270038;28;20112;-79
2021/11/27 03:08:39;;;;;;;7.43;4.20;;;;;;;;;;6264811;28;20536;-79
2021/11/27 03:11:40;;;;;;;9.48;4.57;;;;;;;;;;6272073;28;20498;-78
2021/11/27 03:14:42;;;;;;;8.93;4.40;;;;;;;;;;6269952;28;20056;-78
2021/11/27 03:17:45;;;;;;;8.88;4.43;;;;;;;;;;6270271;28;20057;-79
2021/11/27 03:20:49;;;;;;;8.35;4.32;;;;;;;;;;6250037;28;20056;-77
2021/11/27 03:23:51;;;;;;;9.23;4.70;;;;;;;;;;6252813;28;20132;-78
2021/11/27 03:26:54;;;;;;;8.25;4.43;;;;;;;;;;6269719;28;20049;-77
2021/11/27 03:29:56;;;;;;;7.50;4.40;;;;;;;;;;6269120;28;20091;-78
2021/11/27 03:32:58;;;;;;;9.48;5.00;;;;;;;;;;6272460;28;20524;-78
2021/11/27 03:36:00;;;;;;;10.38;4.78;;;;;;;;;;6252341;28;20084;-79
2021/11/27 03:39:05;;;;;;;7.38;4.60;;;;;;;;;;6252694;28;20126;-79
2021/11/27 03:42:12;;;;;;;8.38;4.40;;;;;;;;;;6249645;28;20120;-77
2021/11/27 03:45:18;;;;;;;6.63;3.78;;;;;;;;;;6265366;28;20434;-77
2021/11/27 03:48:32;;;;;;;8.60;4.18;;;;;;;;;;6269442;28;20041;-79
2021/11/27 03:52:02;;;;;;;7.53;4.05;;;;;;;;;;6268600;28;20405;-79
2021/11/27 03:55:12;;;;;;;6.72;4.10;;;;;;;;;;6268494;28;20505;-79
2021/11/27 03:58:15;;;;;;;7.13;3.80;;;;;;;;;;6250229;28;20128;-79
2021/11/27 04:01:18;;;;;;;5.53;3.53;;;;;;;;;;6262877;28;20387;-77
2021/11/27 04:04:22;;;;;;;6.72;3.08;;;;;;;;;;6261571;28;20036;-79
2021/11/27 04:07:28;;;;;;;6.28;3.80;;;;;;;;;;6268601;28;20076;-80
2021/11/27 04:10:30;;;;;;;5.75;3.40;;;;;;;;;;6267902;28;20052;-79
2021/11/27 04:13:33;;;;;;;6.50;3.67;;;;;;;;;;6264884;28;20048;-79
2021/11/27 04:16:36;;;;;;;6.10;3.40;;;;;;;;;;6268327;28;20047;-79
2021/11/27 04:19:39;;;;;;;5.93;3.35;;;;;;;;;;6267339;28;20052;-78
2021/11/27 04:22:42;;;;;;;5.50;3.42;;;;;;;;;;6263198;28;20041;-78
2021/11/27 04:25:44;;;;;;;5.68;2.90;;;;;;;;;;6267668;28;20563;-77
2021/11/27 04:28:48;;;;;;;4.25;3.08;;;;;;;;;;6265590;28;20106;-78
2021/11/27 04:31:49;;;;;;;;;;;;;;;;;;6266589;28;20049;-79
2021/11/27 04:34:51;;;;;;;5.13;2.90;;;;;;;;;;6243328;28;20336;-79
2021/11/27 04:37:54;;;;;;;6.88;3.40;;;;;;;;;;6249365;28;20048;-78
2021/11/27 04:40:57;;;;;;;6.90;3.58;;;;;;;;;;6266030;28;20320;-77
2021/11/27 04:44:00;;;;;;;5.70;3.63;;;;;;;;;;6262800;28;20074;-77
2021/11/27 04:47:02;;;;;;;6.10;3.25;;;;;;;;;;6266533;28;20068;-78
2021/11/27 04:50:08;;;;;;;6.10;3.00;;;;;;;;;;6264541;28;20418;-77
2021/11/27 04:53:09;;;;;;;7.47;3.75;;;;;;;;;;6264548;28;20064;-78
2021/11/27 04:56:12;;;;;;;5.68;3.20;;;;;;;;;;6266691;28;20052;-79
2021/11/27 04:59:15;;;;;;;6.45;3.40;;;;;;;;;;6265724;28;20041;-79
2021/11/27 05:02:17;;;;;;;5.18;3.00;;;;;;;;;;6264149;28;20044;-78
2021/11/27 05:05:19;;;;;;;4.15;3.00;;;;;;;;;;6264995;28;20064;-79
2021/11/27 05:08:22;;;;;;;5.10;2.92;;;;;;;;;;6266104;28;20037;-79
2021/11/27 05:11:24;;;;;;;5.03;3.83;;;;;;;;;;6265866;28;20045;-79
2021/11/27 05:14:27;;;;;;;;;;;;;;;;;;6262763;28;20103;-77
2021/11/27 05:17:28;;;;;;;4.55;3.10;;;;;;;;;;6265883;28;20470;-79
2021/11/27 05:20:33;;;;;;;6.18;3.25;;;;;;;;;;6263860;28;20045;-79
2021/11/27 05:23:34;;;;;;;4.70;2.90;;;;;;;;;;6266374;28;20124;-80
2021/11/27 05:26:54;;;;;;;5.20;2.72;;;;;;;;;;6264749;28;20048;-78
2021/11/27 05:30:12;;;;;;;4.30;2.92;;;;;;;;;;6265358;28;20045;-80
2021/11/27 05:36:47;;;;;;;5.80;3.42;;;;;;;;;;6264280;28;20263;-79
2021/11/27 05:39:51;;;;;;;9.10;3.92;;;;;;;;;;6265659;28;20584;-79
2021/11/27 05:42:53;;;;;;;6.22;3.05;;;;;;;;;;6264322;28;20037;-78
2021/11/27 05:45:56;;;;;;;4.30;2.88;;;;;;;;;;6265200;28;20120;-79
2021/11/27 05:49:03;;;;;;;4.75;2.53;;;;;;;;;;6265977;28;20258;-80
2021/11/27 05:52:05;;;;;;;4.95;2.50;;;;;;;;;;6263797;28;20063;-77
2021/11/27 05:55:07;;;;;;;4.15;2.90;;;;;;;;;;6264628;28;20119;-79
2021/11/27 05:58:09;;;;;;;5.28;3.08;;;;;;;;;;6266335;28;20075;-78
2021/11/27 06:01:10;;;;;;;3.95;2.55;;;;;;;;;;6266743;28;20417;-78
2021/11/27 06:04:12;;;;;;;3.90;2.50;;;;;;;;;;6265508;28;20052;-78
2021/11/27 06:07:14;;;;;;;3.83;2.22;;;;;;;;;;6259333;28;20128;-77
2021/11/27 06:10:16;;;;;;;3.90;2.67;;;;;;;;;;6265332;28;20045;-79
2021/11/27 06:13:20;;;;;;;3.83;2.35;;;;;;;;;;6265753;28;20087;-78
2021/11/27 06:16:22;;;;;;;4.65;2.60;;;;;;;;;;6264906;28;20098;-79
2021/11/27 06:19:24;;;;;;;3.42;2.25;;;;;;;;;;6262422;28;20055;-78
2021/11/27 06:22:26;;;;;;;4.15;2.38;;;;;;;;;;6266002;28;20048;-78
2021/11/27 06:25:27;;;;;;;3.78;2.40;;;;;;;;;;6268549;28;20515;-78
2021/11/27 06:28:29;;;;;;;3.28;2.22;;;;;;;;;;6264739;28;20040;-79
2021/11/27 06:31:31;;;;;;;3.97;2.78;;;;;;;;;;6267867;28;20037;-80
2021/11/27 06:34:35;;;;;;;5.70;3.10;;;;;;;;;;6269495;28;20095;-80
2021/11/27 06:37:37;;;;;;;3.07;2.27;;;;;;;;;;6268993;28;20041;-79
2021/11/27 06:40:42;;;;;;;3.75;2.40;;;;;;;;;;6265902;28;20056;-79
2021/11/27 06:43:52;;;;;;;3.00;2.10;;;;;;;;;;6266547;28;20045;-79
2021/11/27 06:46:58;;;;;;;4.47;2.90;;;;;;;;;;6269393;28;20076;-80
2021/11/27 06:50:00;;;;;;;4.40;2.58;;;;;;;;;;6270269;28;20104;-80
2021/11/27 06:53:02;;;;;;;6.13;3.20;;;;;;;;;;6250791;28;20051;-79
2021/11/27 06:56:04;;;;;;;4.05;2.72;;;;;;;;;;6243317;28;20497;-80
2021/11/27 06:59:07;;;;;;;4.15;2.72;;;;;;;;;;6261373;28;20452;-79
2021/11/27 07:02:09;;;;;;;5.10;2.53;;;;;;;;;;6268229;28;20049;-77
2021/11/27 07:05:23;;;;;;;7.90;4.40;;;;;;;;;;6270488;28;20071;-79
2021/11/27 07:08:28;;;;;;;6.03;4.22;;;;;;;;;;6259579;28;20063;-78
2021/11/27 07:11:40;;;;;;;7.35;3.55;;;;;;;;;;6266572;28;20044;-78
2021/11/27 07:14:42;;;;;;;4.80;3.00;;;;;;;;;;6263475;28;20076;-78
2021/11/27 07:17:43;;;;;;;4.97;2.40;;;;;;;;;;6227946;28;20125;-78
2021/11/27 07:20:54;;;;;;;3.63;2.38;;;;;;;;;;6243418;28;20044;-79
2021/11/27 07:23:56;;;;;;;3.58;2.50;;;;;;;;;;6257505;28;20090;-80
2021/11/27 07:26:59;;;;;;;4.75;2.75;;;;;;;;;;6268054;28;20052;-78
2021/11/27 07:30:01;;;;;;;5.18;2.80;;;;;;;;;;6263648;28;20037;-77
2021/11/27 07:33:07;;;;;;;4.70;2.70;;;;;;;;;;6263417;28;20126;-77
2021/11/27 07:36:09;;;;;;;4.45;3.15;;;;;;;;;;6263139;28;20037;-77
2021/11/27 07:39:11;;;;;;;3.72;2.70;;;;;;;;;;6228375;28;20052;-78
2021/11/27 07:42:12;;;;;;;4.78;3.45;;;;;;;;;;6213121;28;20534;-77
2021/11/27 07:45:43;;;;;;;5.03;3.53;;;;;;;;;;6262074;28;20049;-78
2021/11/27 07:49:03;;;;;;;4.57;3.00;;;;;;;;;;6265378;28;20484;-78
2021/11/27 07:52:24;;;;;;;4.68;2.60;;;;;;;;;;6260393;28;20044;-77
2021/11/27 07:55:28;;;;;;;4.80;2.97;;;;;;;;;;6247342;28;20037;-78
2021/11/27 07:58:30;;;;;;;4.82;2.70;;;;;;;;;;6236532;28;20514;-79
2021/11/27 08:01:35;;;;;;;4.72;3.03;;;;;;;;;;6241451;28;20125;-78
2021/11/27 08:04:37;;;;;;;4.40;3.15;;;;;;;;;;6238162;28;20422;-78
2021/11/27 08:07:38;;;;;;;5.82;3.13;;;;;;;;;;6238818;28;20051;-78
2021/11/27 08:10:40;;;;;;;5.53;3.00;;;;;;;;;;6251570;28;20041;-80
2021/11/27 08:13:43;;;;;;;5.50;3.55;;;;;;;;;;6258713;28;20056;-78
2021/11/27 08:16:45;;;;;;;;;;;;;;;;;;6264825;28;20468;-80
2021/11/27 08:19:48;;;;;;;7.38;3.92;;;;;;;;;;6266331;28;20054;-80
2021/11/27 08:22:50;;;;;;;6.20;3.53;;;;;;;;;;6258738;28;20037;-79
2021/11/27 08:25:52;;;;;;;5.30;3.55;;;;;;;;;;6246828;28;20059;-79
2021/11/27 08:28:53;;;;;;;6.63;4.00;;;;;;;;;;6263088;28;20047;-78
2021/11/27 08:31:55;;;;;;;6.20;3.50;;;;;;;;;;6263686;28;20053;-78
2021/11/27 08:34:57;;;;;;;5.35;3.53;;;;;;;;;;6262292;28;20040;-80
2021/11/27 08:37:59;;;;;;;6.50;4.03;;;;;;;;;;6259236;28;20072;-80
2021/11/27 08:41:01;;;;;;;5.97;3.63;;;;;;;;;;6263455;28;20115;-79
2021/11/27 08:44:04;;;;;;;6.10;3.55;;;;;;;;;;6254555;28;20057;-79
2021/11/27 08:47:05;;;;;;;5.35;3.13;;;;;;;;;;6261463;28;20175;-80
2021/11/27 08:50:10;;;;;;;4.60;2.85;;;;;;;;;;6260539;28;20091;-78
2021/11/27 08:53:11;;;;;;;4.80;3.00;;;;;;;;;;6258342;28;20136;-79
2021/11/27 08:56:13;;;;;;;4.78;3.50;;;;;;;;;;6249810;28;20059;-79
2021/11/27 08:59:15;;;;;;;6.43;3.55;;;;;;;;;;6253930;28;20041;-79
2021/11/27 09:02:17;;;;;;;6.70;3.50;;;;;;;;;;6256934;28;20041;-79
2021/11/27 09:05:19;;;;;;;6.88;3.72;;;;;;;;;;6263805;28;20047;-80
2021/11/27 09:08:21;;;;;;;5.00;2.95;;;;;;;;;;6262833;28;20071;-80
2021/11/27 09:11:25;;;;;;;4.97;3.08;;;;;;;;;;6261757;28;20049;-79
2021/11/27 09:14:27;;;;;;;3.85;2.78;;;;;;;;;;6245744;28;20041;-81
2021/11/27 09:17:29;;;;;;;3.20;2.58;;;;;;;;;;6259146;28;20044;-81
2021/11/27 09:20:33;;;;;;;4.10;2.40;;;;;;;;;;6250721;28;20041;-80
2021/11/27 09:23:35;;;;;;;4.35;2.65;;;;;;;;;;6256794;28;20052;-81
2021/11/27 09:26:37;;;;;;;3.42;2.38;;;;;;;;;;6261426;28;20073;-81
2021/11/27 09:29:39;;;;;;;3.55;2.38;;;;;;;;;;6253033;28;20126;-80
2021/11/27 09:32:41;;;;;;;2.72;2.00;;;;;;;;;;6251442;28;20048;-80
2021/11/27 09:35:55;;;;;;;4.72;2.40;;;;;;;;;;6248502;28;20053;-80
2021/11/27 09:38:57;;;;;;;3.38;2.20;;;;;;;;;;6243994;28;20079;-79
2021/11/27 09:42:00;;;;;;;3.85;2.60;;;;;;;;;;6250483;28;20523;-80
2021/11/27 09:45:03;;;;;;;4.75;2.65;;;;;;;;;;6250755;28;20116;-82
2021/11/27 09:48:08;;;;;;;3.92;2.58;;;;;;;;;;6235597;28;20073;-79
2021/11/27 09:51:09;;;;;;;3.85;2.47;;;;;;;;;;6254902;28;20044;-82
2021/11/27 09:54:16;;;;;;;3.92;2.65;;;;;;;;;;6261390;28;20044;-80
2021/11/27 09:57:18;;;;;;;5.22;2.75;;;;;;;;;;6257824;28;20161;-80
2021/11/27 10:00:20;;;;;;;4.32;2.58;;;;;;;;;;6263023;28;20133;-81
2021/11/27 10:03:23;;;;;;;3.77;2.47;;;;;;;;;;6274391;28;20167;-81
2021/11/27 10:06:26;;;;;;;4.78;2.78;;;;;;;;;;6260501;28;20136;-81
2021/11/27 10:09:29;;;;;;;5.15;3.20;;;;;;;;;;6269440;28;20100;-80
2021/11/27 10:12:31;;;;;;;4.63;2.97;;;;;;;;;;6252258;28;20098;-82
2021/11/27 10:15:33;;;;;;;4.50;2.95;;;;;;;;;;6261091;28;20116;-80
2021/11/27 10:18:35;;;;;;;3.80;3.00;;;;;;;;;;6263987;28;20418;-79
2021/11/27 10:21:38;;;;;;;3.30;2.70;;;;;;;;;;6257701;28;20052;-82
2021/11/27 10:24:41;;;;;;;;;;;;;;;;;;6259207;28;20105;-80
2021/11/27 10:27:43;;;;;;;3.58;2.67;;;;;;;;;;6262708;28;19921;-81
2021/11/27 10:30:59;;;;;;;4.30;3.08;;;;;;;;;;6257124;28;20136;-82
2021/11/27 10:34:02;;;;;;;4.20;2.80;;;;;;;;;;6259119;28;20121;-80
2021/11/27 10:37:21;;;;;;;4.85;3.00;;;;;;;;;;6268045;28;20045;-81
2021/11/27 10:40:26;;;;;;;4.93;3.10;;;;;;;;;;6274577;28;20132;-82
2021/11/27 10:43:28;;;;;;;3.83;3.17;;;;;;;;;;6240550;28;20052;-79
2021/11/27 10:46:49;;;;;;;4.53;3.30;;;;;;;;;;6269628;28;20414;-80
2021/11/27 10:49:51;;;;;;;3.95;2.70;;;;;;;;;;6274085;28;20049;-80
2021/11/27 10:52:53;;;;;;;5.15;3.25;;;;;;;;;;6275972;28;20083;-82
2021/11/27 10:56:04;;;;;;;4.55;3.22;;;;;;;;;;6275357;28;20049;-80
2021/11/27 10:59:07;;;;;;;4.00;2.92;;;;;;;;;;6268086;28;20105;-81
2021/11/27 11:02:10;;;;;;;;;;;;;;;;;;6272266;28;20048;-81
2021/11/27 11:05:17;;;;;;;3.42;2.30;;;;;;;;;;6269813;28;20089;-80
2021/11/27 11:08:36;;;;;;;3.97;3.03;;;;;;;;;;6269379;28;20302;-81
2021/11/27 11:11:37;;;;;;;6.53;5.15;;;;;;;;;;6270039;28;20037;-81
2021/11/27 11:14:40;;;;;;;28.02;14.35;;;;;;;;;;6269462;28;20051;-82
2021/11/27 11:17:43;;;;;;;20.13;11.27;;;;;;;;;;6263308;28;20190;-82
2021/11/27 11:20:46;;;;;;;8.18;4.35;;;;;;;;;;6279385;28;20040;-81
2021/11/27 11:23:49;;;;;;;6.70;3.30;;;;;;;;;;6263250;28;20132;-82
2021/11/27 11:27:11;;;;;;;8.85;5.18;;;;;;;;;;6250246;28;20056;-82
2021/11/27 11:30:16;;;;;;;8.70;3.95;;;;;;;;;;6265706;28;20128;-80
2021/11/27 11:33:19;;;;;;;6.78;3.58;;;;;;;;;;6266597;28;20202;-81
2021/11/27 11:36:22;;;;;;;;;;;;;;;;;;6267283;28;20057;-82
2021/11/27 11:39:23;;;;;;;7.30;3.80;;;;;;;;;;6268200;28;19924;-80
2021/11/27 11:42:26;;;;;;;6.22;3.50;;;;;;;;;;6240700;28;20050;-81
2021/11/27 11:45:28;;;;;;;13.27;6.43;;;;;;;;;;6226584;28;20052;-79
2021/11/27 11:48:30;;;;;;;7.13;3.63;;;;;;;;;;6268939;28;20083;-82
2021/11/27 11:51:49;;;;;;;9.27;3.65;;;;;;;;;;6264276;28;20413;-81
2021/11/27 11:54:58;;;;;;;9.25;4.07;;;;;;;;;;6268106;28;20541;-83
2021/11/27 11:58:03;;;;;;;5.95;3.55;;;;;;;;;;6259936;28;20151;-80
2021/11/27 12:01:15;;;;;;;9.55;5.22;;;;;;;;;;6266913;28;20547;-81
2021/11/27 12:04:22;;;;;;;10.43;4.50;;;;;;;;;;6267840;28;20290;-81
2021/11/27 12:07:46;;;;;;;4.53;3.00;;;;;;;;;;6264652;28;20045;-82
2021/11/27 12:11:05;;;;;;;5.38;2.85;;;;;;;;;;6264611;28;20201;-79
2021/11/27 12:14:19;;;;;;;4.63;2.78;;;;;;;;;;6267605;28;20041;-79
2021/11/27 12:17:20;;;;;;;4.20;2.88;;;;;;;;;;6253281;28;20144;-80
2021/11/27 12:20:49;;;;;;;4.20;2.55;;;;;;;;;;6255158;28;20156;-79
2021/11/27 12:23:51;;;;;;;6.65;2.80;;;;;;;;;;6241618;28;20211;-79
2021/11/27 12:27:09;;;;;;;3.90;2.22;;;;;;;;;;6250219;28;20047;-80
2021/11/27 12:30:10;;;;;;;4.68;2.38;;;;;;;;;;6240803;28;20869;-80
2021/11/27 12:33:50;;;;;;;3.58;2.35;;;;;;;;;;6246699;28;20100;-79
2021/11/27 12:36:52;;;;;;;4.43;2.40;;;;;;;;;;6154430;28;20062;-79
2021/11/27 12:39:54;;;;;;;3.88;2.22;;;;;;;;;;6172778;28;20106;-80
2021/11/27 12:42:56;;;;;;;5.35;2.85;;;;;;;;;;6249309;28;20041;-80
2021/11/27 12:45:58;;;;;;;5.95;2.42;;;;;;;;;;6264209;28;20134;-79
2021/11/27 12:49:01;;;;;;;4.28;2.35;;;;;;;;;;6262940;28;20044;-81
2021/11/27 12:55:16;;;;;;;;;;;;;;;;;;6265855;28;20118;-80
2021/11/27 12:58:29;;;;;;;5.25;2.90;;;;;;;;;;6262384;28;20377;-78
2021/11/27 13:01:32;;;;;;;5.32;2.70;;;;;;;;;;6239057;28;20079;-81
2021/11/27 13:04:38;;;;;;;9.30;4.80;;;;;;;;;;6262701;28;20086;-79
2021/11/27 13:07:39;;;;;;;5.45;3.03;;;;;;;;;;6244963;28;20723;-81
2021/11/27 13:10:45;;;;;;;4.32;2.60;;;;;;;;;;6264333;28;20044;-80
2021/11/27 13:13:51;;;;;;;5.82;3.70;;;;;;;;;;6263467;28;20055;-79
2021/11/27 13:16:54;;;;;;;4.43;2.80;;;;;;;;;;6246059;28;20096;-80
2021/11/27 13:19:58;;;;;;;4.65;2.90;;;;;;;;;;6259623;28;20253;-81
2021/11/27 13:23:02;;;;;;;5.53;3.40;;;;;;;;;;6260658;28;20041;-80
2021/11/27 13:26:11;;;;;;;5.00;2.75;;;;;;;;;;6265132;28;20051;-80
2021/11/27 13:29:13;;;;;;;7.13;2.95;;;;;;;;;;6266284;28;20136;-80
2021/11/27 13:32:14;;;;;;;6.15;3.13;;;;;;;;;;6264801;28;20127;-80
2021/11/27 13:35:19;;;;;;;4.53;3.00;;;;;;;;;;6265671;28;20045;-81
2021/11/27 13:38:26;;;;;;;4.53;3.05;;;;;;;;;;6261502;28;20126;-81
2021/11/27 13:41:29;;;;;;;11.40;3.63;;;;;;;;;;6244224;28;20119;-81
2021/11/27 13:44:54;;;;;;;3.13;2.40;;;;;;;;;;6264260;28;20110;-81
2021/11/27 13:48:03;;;;;;;3.72;2.72;;;;;;;;;;6269428;28;20049;-80
2021/11/27 13:51:05;;;;;;;4.25;2.17;;;;;;;;;;6267281;28;20049;-80
2021/11/27 13:54:06;;;;;;;4.03;2.10;;;;;;;;;;6268812;28;20059;-81
2021/11/27 13:57:09;;;;;;;3.63;2.58;;;;;;;;;;6266008;28;20224;-80
2021/11/27 14:00:27;;;;;;;4.17;2.80;;;;;;;;;;6267340;28;20203;-80
2021/11/27 14:03:34;;;;;;;4.60;2.53;;;;;;;;;;6267624;28;20044;-80
2021/11/27 14:06:35;;;;;;;6.18;3.33;;;;;;;;;;6269117;28;20045;-81
2021/11/27 14:09:50;;;;;;;5.55;3.15;;;;;;;;;;6249487;28;20104;-79
2021/11/27 14:13:02;;;;;;;4.10;2.78;;;;;;;;;;6261410;28;20096;-79
2021/11/27 14:16:04;;;;;;;4.75;2.17;;;;;;;;;;6268727;28;20047;-79
2021/11/27 14:19:15;;;;;;;6.90;4.30;;;;;;;;;;6268355;28;20122;-81
2021/11/27 14:22:16;;;;;;;6.32;2.70;;;;;;;;;;6264997;28;20537;-81
2021/11/27 14:25:19;;;;;;;3.88;2.90;;;;;;;;;;6269236;28;20040;-80
2021/11/27 14:28:21;;;;;;;6.53;3.88;;;;;;;;;;6260760;28;20069;-82
2021/11/27 14:31:36;;;;;;;6.45;3.60;;;;;;;;;;6263315;28;20067;-79
2021/11/27 14:34:38;;;;;;;4.30;3.10;;;;;;;;;;6266497;28;20037;-80
2021/11/27 14:37:52;;;;;;;3.83;2.30;;;;;;;;;;6258304;28;20455;-83
2021/11/27 14:40:59;;;;;;;3.38;2.20;;;;;;;;;;6266547;28;20049;-82
2021/11/27 14:44:06;;;;;;;6.55;3.00;;;;;;;;;;6249503;28;20045;-81
2021/11/27 14:47:09;;;;;;;3.70;2.20;;;;;;;;;;6253645;28;20041;-82
2021/11/27 14:50:13;;;;;;;2.25;2.05;;;;;;;;;;6251353;28;20051;-82
2021/11/27 14:53:15;;;;;;;4.22;2.35;;;;;;;;;;6259260;28;20148;-80
2021/11/27 14:56:17;;;;;;;7.50;2.85;;;;;;;;;;6264936;28;20045;-83
2021/11/27 14:59:19;;;;;;;5.18;2.83;;;;;;;;;;6263710;28;20045;-83
2021/11/27 15:02:29;;;;;;;6.72;3.83;;;;;;;;;;6261444;28;20167;-82
2021/11/27 15:05:31;;;;;;;9.98;5.35;;;;;;;;;;6262399;28;20212;-81
2021/11/27 15:08:33;;;;;;;12.48;7.65;;;;;;;;;;6252139;28;20127;-83
2021/11/27 15:11:35;;;;;;;7.85;5.88;;;;;;;;;;6270916;28;20037;-83
2021/11/27 15:14:38;;;;;;;7.78;3.72;;;;;;;;;;6270068;28;20148;-81
2021/11/27 15:17:42;;;;;;;6.75;4.43;;;;;;;;;;6255290;28;20041;-81
2021/11/27 15:20:45;;;;;;;7.05;4.10;;;;;;;;;;6269357;28;20041;-82
2021/11/27 15:23:47;;;;;;;7.53;3.73;;;;;;;;;;6254864;28;20179;-83
2021/11/27 15:26:49;;;;;;;8.85;3.90;;;;;;;;;;6254089;28;20150;-80
2021/11/27 15:29:52;;;;;;;35.78;14.68;;;;;;;;;;6271010;28;20052;-82
2021/11/27 15:32:53;;;;;;;70.72;23.08;;;;;;;;;;6270442;28;20429;-80
2021/11/27 15:35:55;;;;;;;23.92;10.65;;;;;;;;;;6270820;28;20053;-82
2021/11/27 15:38:57;;;;;;;76.15;27.55;;;;;;;;;;6252755;28;20556;-81
2021/11/27 15:42:03;;;;;;;10.15;5.55;;;;;;;;;;6250280;28;20072;-82
2021/11/27 15:45:05;;;;;;;42.58;16.27;;;;;;;;;;6250258;28;20135;-81
2021/11/27 15:48:06;;;;;;;28.13;12.10;;;;;;;;;;6253577;28;20124;-81
2021/11/27 15:51:10;;;;;;;9.82;6.22;;;;;;;;;;6263698;28;20458;-80
2021/11/27 15:54:12;;;;;;;74.35;35.38;;;;;;;;;;6270447;28;20052;-83
2021/11/27 15:57:13;;;;;;;39.45;20.17;;;;;;;;;;6250027;28;20099;-81
2021/11/27 16:00:15;;;;;;;9.52;6.65;;;;;;;;;;6261160;28;20044;-80
2021/11/27 16:03:17;;;;;;;8.93;4.93;;;;;;;;;;6273826;28;20048;-80
2021/11/27 16:06:19;;;;;;;14.93;9.43;;;;;;;;;;6269987;28;20041;-82
2021/11/27 16:09:20;;;;;;;20.95;10.52;;;;;;;;;;6253427;28;20051;-80
2021/11/27 16:12:22;;;;;;;26.75;12.02;;;;;;;;;;6263975;28;20533;-81
2021/11/27 16:15:24;;;;;;;28.27;11.60;;;;;;;;;;6268318;28;20113;-79
2021/11/27 16:18:26;;;;;;;9.05;5.05;;;;;;;;;;6268882;28;20175;-82
2021/11/27 16:21:28;;;;;;;10.52;5.55;;;;;;;;;;6267074;28;20044;-82
2021/11/27 16:24:29;;;;;;;11.73;7.63;;;;;;;;;;6245173;28;20052;-81
2021/11/27 16:27:31;;;;;;;12.85;6.38;;;;;;;;;;6260363;28;20045;-81
2021/11/27 16:30:33;;;;;;;17.48;8.55;;;;;;;;;;6245325;28;20078;-79
2021/11/27 16:33:34;;;;;;;24.00;10.23;;;;;;;;;;6259847;28;20072;-81
2021/11/27 16:36:36;;;;;;;22.13;10.38;;;;;;;;;;6235855;28;20049;-81
2021/11/27 16:39:39;;;;;;;20.33;10.40;;;;;;;;;;6241325;28;20048;-81
2021/11/27 16:42:41;;;;;;;41.63;16.00;;;;;;;;;;6258938;28;20041;-81
2021/11/27 16:45:43;;;;;;;38.42;14.75;;;;;;;;;;6225370;28;20125;-82
2021/11/27 16:48:47;;;;;;;27.67;13.10;;;;;;;;;;6260931;28;20098;-78
2021/11/27 16:51:49;;;;;;;31.80;14.52;;;;;;;;;;6237664;28;20107;-81
2021/11/27 16:54:52;;;;;;;33.15;14.57;;;;;;;;;;6264959;28;20037;-82
2021/11/27 16:57:54;;;;;;;31.25;14.18;;;;;;;;;;6261125;28;20106;-80
2021/11/27 17:00:56;;;;;;;29.80;14.90;;;;;;;;;;6264642;28;20048;-81
2021/11/27 17:03:58;;;;;;;39.55;18.50;;;;;;;;;;6244030;28;20126;-80
2021/11/27 17:07:00;;;;;;;41.67;17.92;;;;;;;;;;6261404;28;20052;-82
2021/11/27 17:10:02;;;;;;;32.88;16.42;;;;;;;;;;6262647;28;20128;-82
2021/11/27 17:13:03;;;;;;;30.40;15.02;;;;;;;;;;6257629;28;20498;-82
2021/11/27 17:16:05;;;;;;;30.42;15.43;;;;;;;;;;6247534;28;20041;-81
2021/11/27 17:19:08;;;;;;;44.85;20.52;;;;;;;;;;6264062;28;20163;-82
2021/11/27 17:22:12;;;;;;;47.25;19.98;;;;;;;;;;6262699;28;20052;-82
2021/11/27 17:25:15;;;;;;;51.28;19.67;;;;;;;;;;6262050;28;20040;-81
2021/11/27 17:28:17;;;;;;;39.38;16.27;;;;;;;;;;6263193;28;20048;-82
2021/11/27 17:31:18;;;;;;;42.28;17.00;;;;;;;;;;6262183;28;20049;-82
2021/11/27 17:34:20;;;;;;;40.28;16.60;;;;;;;;;;6246788;28;20049;-82
2021/11/27 17:37:27;;;;;;;66.13;21.52;;;;;;;;;;6261632;28;20049;-81
2021/11/27 17:40:28;;;;;;;43.90;17.60;;;;;;;;;;6254264;28;20519;-82
2021/11/27 17:43:31;;;;;;;36.53;16.92;;;;;;;;;;6261326;28;20654;-82
2021/11/27 17:46:32;;;;;;;37.27;15.87;;;;;;;;;;6262986;28;20045;-82
2021/11/27 17:49:34;;;;;;;35.85;14.27;;;;;;;;;;6262087;28;20053;-80
2021/11/27 17:52:40;;;;;;;30.40;13.40;;;;;;;;;;6260408;28;20044;-80
2021/11/27 17:55:41;;;;;;;30.08;12.93;;;;;;;;;;6264973;28;20051;-83
2021/11/27 17:58:43;;;;;;;25.33;12.00;;;;;;;;;;6261925;28;20044;-82
2021/11/27 18:01:45;;;;;;;29.33;13.15;;;;;;;;;;6246252;28;20055;-80
2021/11/27 18:04:47;;;;;;;25.48;12.27;;;;;;;;;;6262213;28;20075;-82
2021/11/27 18:07:48;;;;;;;56.00;20.55;;;;;;;;;;6262242;28;20186;-81
2021/11/27 18:10:50;;;;;;;30.05;15.48;;;;;;;;;;6263459;28;20053;-81
2021/11/27 18:13:51;;;;;;;29.75;17.35;;;;;;;;;;6262279;28;20068;-79
2021/11/27 18:16:53;;;;;;;28.73;15.63;;;;;;;;;;6242204;28;20371;-81
2021/11/27 18:19:55;;;;;;;29.05;15.00;;;;;;;;;;6226651;28;20120;-80
2021/11/27 18:22:58;;;;;;;28.65;12.43;;;;;;;;;;6249765;28;20059;-79
2021/11/27 18:26:13;;;;;;;25.38;12.60;;;;;;;;;;6248527;28;20047;-81
2021/11/27 18:29:15;;;;;;;24.77;11.50;;;;;;;;;;6243670;28;20049;-78